sensor_id;sensor_type;location;lat;lon;timestamp;pressure;altitude;pressure_sealevel;temperature;humidity
17505;BME280;8870;50.950;11.762;2022-09-09T00:04:58;97938.16;;;14.10;100.00
17505;BME280;8870;50.950;11.762;2022-09-09T00:10:13;97940.00;;;14.03;100.00
17505;BME280;8870;50.950;11.762;2022-09-09T00:15:24;97938.66;;;13.92;100.00
17505;BME280;8870;50.950;11.762;2022-09-09T00:20:35;97937.16;;;13.90;100.00
17505;BME280;8870;50.950;11.762;2022-09-09T00:25:48;97940.47;;;13.85;100.00
17505;BME280;8870;50.950;11.762;2022-09-09T00:31:12;97927.50;;;13.80;100.00
17505;BME280;8870;50.950;11.762;2022-09-09T00:36:20;97930.81;;;13.76;100.00
17505;BME280;8870;50.950;11.762;2022-09-09T00:41:42;97933.03;;;13.72;100.00
17505;BME280;8870;50.950;11.762;2022-09-09T00:47:20;97931.94;;;13.66;100.00
17505;BME280;8870;50.950;11.762;2022-09-09T00:52:36;97925.88;;;13.64;100.00
17505;BME280;8870;50.950;11.762;2022-09-09T00:57:44;97918.16;;;13.61;100.00
17505;BME280;8870;50.950;11.762;2022-09-09T01:03:06;97922.94;;;13.59;100.00
17505;BME280;8870;50.950;11.762;2022-09-09T01:08:28;97918.94;;;13.55;100.00
17505;BME280;8870;50.950;11.762;2022-09-09T01:13:38;97926.34;;;13.46;100.00
17505;BME280;8870;50.950;11.762;2022-09-09T01:18:52;97920.47;;;13.43;100.00
17505;BME280;8870;50.950;11.762;2022-09-09T01:24:15;97910.88;;;13.40;100.00
17505;BME280;8870;50.950;11.762;2022-09-09T01:29:43;97915.81;;;13.36;100.00
17505;BME280;8870;50.950;11.762;2022-09-09T01:34:50;97896.41;;;13.33;100.00
17505;BME280;8870;50.950;11.762;2022-09-09T01:39:56;97907.63;;;13.30;100.00
17505;BME280;8870;50.950;11.762;2022-09-09T01:45:04;97901.94;;;13.24;100.00
17505;BME280;8870;50.950;11.762;2022-09-09T01:50:10;97905.03;;;13.21;100.00
17505;BME280;8870;50.950;11.762;2022-09-09T01:55:19;97908.31;;;13.17;100.00
17505;BME280;8870;50.950;11.762;2022-09-09T02:00:32;97914.66;;;13.09;100.00
17505;BME280;8870;50.950;11.762;2022-09-09T02:05:41;97922.94;;;13.07;100.00
17505;BME280;8870;50.950;11.762;2022-09-09T02:10:59;97914.84;;;13.07;100.00
17505;BME280;8870;50.950;11.762;2022-09-09T02:16:21;97930.03;;;13.08;100.00
17505;BME280;8870;50.950;11.762;2022-09-09T02:21:30;97937.22;;;13.16;100.00
17505;BME280;8870;50.950;11.762;2022-09-09T02:26:39;97923.47;;;13.18;100.00
17505;BME280;8870;50.950;11.762;2022-09-09T02:31:50;97920.25;;;13.22;100.00
17505;BME280;8870;50.950;11.762;2022-09-09T02:37:03;97927.28;;;13.23;100.00
17505;BME280;8870;50.950;11.762;2022-09-09T02:42:10;97925.91;;;13.28;100.00
17505;BME280;8870;50.950;11.762;2022-09-09T02:47:26;97911.72;;;13.25;100.00
17505;BME280;8870;50.950;11.762;2022-09-09T02:52:48;97913.97;;;13.22;100.00
17505;BME280;8870;50.950;11.762;2022-09-09T02:57:59;97912.28;;;13.21;100.00
17505;BME280;8870;50.950;11.762;2022-09-09T03:03:09;97914.81;;;13.22;100.00
17505;BME280;8870;50.950;11.762;2022-09-09T03:08:15;97912.75;;;13.24;100.00
17505;BME280;8870;50.950;11.762;2022-09-09T03:13:20;97909.66;;;13.28;100.00
17505;BME280;8870;50.950;11.762;2022-09-09T03:18:28;97912.81;;;13.31;100.00
17505;BME280;8870;50.950;11.762;2022-09-09T03:23:34;97915.91;;;13.43;100.00
17505;BME280;8870;50.950;11.762;2022-09-09T03:28:39;97922.13;;;13.44;100.00
17505;BME280;8870;50.950;11.762;2022-09-09T03:33:47;97919.25;;;13.45;100.00
17505;BME280;8870;50.950;11.762;2022-09-09T03:38:54;97921.75;;;13.47;100.00
17505;BME280;8870;50.950;11.762;2022-09-09T03:44:02;97899.53;;;13.51;100.00
17505;BME280;8870;50.950;11.762;2022-09-09T03:49:14;97907.28;;;13.54;100.00
17505;BME280;8870;50.950;11.762;2022-09-09T03:54:19;97898.25;;;13.69;100.00
17505;BME280;8870;50.950;11.762;2022-09-09T03:59:24;97899.94;;;13.70;100.00
17505;BME280;8870;50.950;11.762;2022-09-09T04:04:31;97907.84;;;13.71;100.00
17505;BME280;8870;50.950;11.762;2022-09-09T04:09:36;97904.94;;;13.73;100.00
17505;BME280;8870;50.950;11.762;2022-09-09T04:14:42;97904.28;;;13.71;100.00
17505;BME280;8870;50.950;11.762;2022-09-09T04:19:49;97899.53;;;13.73;100.00
17505;BME280;8870;50.950;11.762;2022-09-09T04:24:55;97892.91;;;13.76;100.00
17505;BME280;8870;50.950;11.762;2022-09-09T04:30:02;97885.59;;;13.76;100.00
17505;BME280;8870;50.950;11.762;2022-09-09T04:35:11;97894.00;;;13.81;100.00
17505;BME280;8870;50.950;11.762;2022-09-09T04:40:16;97889.84;;;13.85;100.00
17505;BME280;8870;50.950;11.762;2022-09-09T04:45:21;97903.81;;;13.89;100.00
17505;BME280;8870;50.950;11.762;2022-09-09T04:50:28;97904.09;;;13.94;100.00
17505;BME280;8870;50.950;11.762;2022-09-09T04:55:34;97895.22;;;14.07;100.00
17505;BME280;8870;50.950;11.762;2022-09-09T05:00:39;97889.47;;;14.17;100.00
17505;BME280;8870;50.950;11.762;2022-09-09T05:05:47;97907.84;;;14.22;100.00
17505;BME280;8870;50.950;11.762;2022-09-09T05:10:52;97911.84;;;14.26;100.00
17505;BME280;8870;50.950;11.762;2022-09-09T05:15:57;97912.25;;;14.29;100.00
17505;BME280;8870;50.950;11.762;2022-09-09T05:21:04;97926.63;;;14.30;100.00
17505;BME280;8870;50.950;11.762;2022-09-09T05:26:12;97930.84;;;14.32;100.00
17505;BME280;8870;50.950;11.762;2022-09-09T05:31:21;97922.06;;;14.30;100.00
17505;BME280;8870;50.950;11.762;2022-09-09T05:36:30;97934.59;;;14.31;100.00
17505;BME280;8870;50.950;11.762;2022-09-09T05:41:35;97923.97;;;14.37;100.00
17505;BME280;8870;50.950;11.762;2022-09-09T05:46:40;97932.56;;;14.40;100.00
17505;BME280;8870;50.950;11.762;2022-09-09T05:51:50;97939.63;;;14.41;100.00
17505;BME280;8870;50.950;11.762;2022-09-09T05:56:57;97945.53;;;14.45;100.00
17505;BME280;8870;50.950;11.762;2022-09-09T06:02:03;97935.13;;;14.48;100.00
17505;BME280;8870;50.950;11.762;2022-09-09T06:07:13;97937.19;;;14.46;100.00
17505;BME280;8870;50.950;11.762;2022-09-09T06:12:18;97940.97;;;14.52;100.00
17505;BME280;8870;50.950;11.762;2022-09-09T06:17:22;97941.03;;;14.59;100.00
17505;BME280;8870;50.950;11.762;2022-09-09T06:22:30;97941.88;;;14.66;100.00
17505;BME280;8870;50.950;11.762;2022-09-09T06:27:35;97937.56;;;14.72;100.00
17505;BME280;8870;50.950;11.762;2022-09-09T06:32:39;97930.75;;;14.83;100.00
17505;BME280;8870;50.950;11.762;2022-09-09T06:37:47;97936.41;;;14.88;100.00
17505;BME280;8870;50.950;11.762;2022-09-09T06:42:53;97933.94;;;14.93;100.00
17505;BME280;8870;50.950;11.762;2022-09-09T06:48:08;97954.03;;;15.05;100.00
17505;BME280;8870;50.950;11.762;2022-09-09T06:53:18;97937.41;;;15.22;100.00
17505;BME280;8870;50.950;11.762;2022-09-09T06:58:24;97948.13;;;15.44;100.00
17505;BME280;8870;50.950;11.762;2022-09-09T07:03:31;97947.13;;;15.58;100.00
17505;BME280;8870;50.950;11.762;2022-09-09T07:08:38;97951.50;;;15.66;100.00
17505;BME280;8870;50.950;11.762;2022-09-09T07:13:44;97946.94;;;15.73;100.00
17505;BME280;8870;50.950;11.762;2022-09-09T07:18:49;97945.91;;;15.81;100.00
17505;BME280;8870;50.950;11.762;2022-09-09T07:23:57;97946.97;;;15.86;100.00
17505;BME280;8870;50.950;11.762;2022-09-09T07:29:02;97954.50;;;15.91;100.00
17505;BME280;8870;50.950;11.762;2022-09-09T07:34:07;97954.06;;;15.94;100.00
17505;BME280;8870;50.950;11.762;2022-09-09T07:39:15;97956.19;;;15.99;100.00
17505;BME280;8870;50.950;11.762;2022-09-09T07:44:24;97959.53;;;16.08;100.00
17505;BME280;8870;50.950;11.762;2022-09-09T07:49:39;97957.66;;;16.28;100.00
17505;BME280;8870;50.950;11.762;2022-09-09T07:54:46;97964.09;;;16.41;100.00
17505;BME280;8870;50.950;11.762;2022-09-09T07:59:52;97963.28;;;16.60;100.00
17505;BME280;8870;50.950;11.762;2022-09-09T08:04:58;97973.69;;;16.77;100.00
17505;BME280;8870;50.950;11.762;2022-09-09T08:10:06;97966.56;;;16.96;100.00
17505;BME280;8870;50.950;11.762;2022-09-09T08:15:14;97970.28;;;17.08;100.00
17505;BME280;8870;50.950;11.762;2022-09-09T08:20:18;97964.41;;;17.18;100.00
17505;BME280;8870;50.950;11.762;2022-09-09T08:25:28;97965.19;;;17.25;100.00
17505;BME280;8870;50.950;11.762;2022-09-09T08:30:33;97963.72;;;17.30;100.00
17505;BME280;8870;50.950;11.762;2022-09-09T08:35:49;97962.44;;;17.32;100.00
17505;BME280;8870;50.950;11.762;2022-09-09T08:46:26;97956.97;;;17.39;100.00
17505;BME280;8870;50.950;11.762;2022-09-09T08:51:32;97949.38;;;17.54;100.00
17505;BME280;8870;50.950;11.762;2022-09-09T08:56:41;97956.53;;;17.81;100.00
17505;BME280;8870;50.950;11.762;2022-09-09T09:01:56;97956.44;;;18.01;100.00
17505;BME280;8870;50.950;11.762;2022-09-09T09:07:23;97956.50;;;18.20;100.00
17505;BME280;8870;50.950;11.762;2022-09-09T09:12:40;97963.44;;;18.41;100.00
17505;BME280;8870;50.950;11.762;2022-09-09T09:17:49;97964.53;;;18.58;100.00
17505;BME280;8870;50.950;11.762;2022-09-09T09:22:59;97966.25;;;18.78;100.00
17505;BME280;8870;50.950;11.762;2022-09-09T09:28:15;97961.81;;;19.02;100.00
17505;BME280;8870;50.950;11.762;2022-09-09T09:33:31;97961.34;;;19.43;100.00
17505;BME280;8870;50.950;11.762;2022-09-09T09:38:38;97960.41;;;19.79;100.00
17505;BME280;8870;50.950;11.762;2022-09-09T09:44:22;97962.00;;;19.87;100.00
17505;BME280;8870;50.950;11.762;2022-09-09T09:49:28;97957.41;;;19.99;100.00
17505;BME280;8870;50.950;11.762;2022-09-09T09:54:38;97953.28;;;20.21;100.00
17505;BME280;8870;50.950;11.762;2022-09-09T09:59:46;97954.72;;;20.23;100.00
17505;BME280;8870;50.950;11.762;2022-09-09T10:05:02;97947.34;;;20.12;100.00
17505;BME280;8870;50.950;11.762;2022-09-09T10:10:12;97949.66;;;19.96;100.00
17505;BME280;8870;50.950;11.762;2022-09-09T10:15:34;97951.94;;;19.99;100.00
17505;BME280;8870;50.950;11.762;2022-09-09T10:20:48;97955.78;;;20.10;100.00
17505;BME280;8870;50.950;11.762;2022-09-09T10:26:01;97948.78;;;20.26;100.00
17505;BME280;8870;50.950;11.762;2022-09-09T10:31:21;97939.75;;;20.38;100.00
17505;BME280;8870;50.950;11.762;2022-09-09T10:36:30;97947.38;;;20.36;100.00
17505;BME280;8870;50.950;11.762;2022-09-09T10:41:44;97932.38;;;20.50;100.00
17505;BME280;8870;50.950;11.762;2022-09-09T10:47:11;97934.53;;;20.72;100.00
17505;BME280;8870;50.950;11.762;2022-09-09T10:52:24;97928.44;;;20.82;100.00
17505;BME280;8870;50.950;11.762;2022-09-09T10:57:38;97934.31;;;20.85;100.00
17505;BME280;8870;50.950;11.762;2022-09-09T11:02:49;97925.25;;;20.85;100.00
17505;BME280;8870;50.950;11.762;2022-09-09T11:07:59;97924.16;;;20.86;100.00
17505;BME280;8870;50.950;11.762;2022-09-09T11:13:09;97928.78;;;20.97;100.00
17505;BME280;8870;50.950;11.762;2022-09-09T11:18:21;97920.84;;;21.24;100.00
17505;BME280;8870;50.950;11.762;2022-09-09T11:23:36;97928.66;;;21.45;100.00
17505;BME280;8870;50.950;11.762;2022-09-09T11:28:56;97919.09;;;21.59;100.00
17505;BME280;8870;50.950;11.762;2022-09-09T11:34:21;97914.66;;;21.58;100.00
17505;BME280;8870;50.950;11.762;2022-09-09T11:39:59;97919.63;;;21.73;100.00
17505;BME280;8870;50.950;11.762;2022-09-09T11:45:11;97907.66;;;21.62;100.00
17505;BME280;8870;50.950;11.762;2022-09-09T11:50:31;97909.09;;;21.82;100.00
17505;BME280;8870;50.950;11.762;2022-09-09T11:55:36;97899.81;;;22.00;100.00
17505;BME280;8870;50.950;11.762;2022-09-09T12:00:42;97902.13;;;22.08;100.00
17505;BME280;8870;50.950;11.762;2022-09-09T12:05:50;97911.78;;;22.11;100.00
17505;BME280;8870;50.950;11.762;2022-09-09T12:10:57;97910.94;;;22.27;100.00
17505;BME280;8870;50.950;11.762;2022-09-09T12:16:03;97906.09;;;22.17;100.00
17505;BME280;8870;50.950;11.762;2022-09-09T12:21:20;97896.63;;;22.25;100.00
17505;BME280;8870;50.950;11.762;2022-09-09T12:26:33;97888.91;;;22.22;100.00
17505;BME280;8870;50.950;11.762;2022-09-09T12:31:43;97874.44;;;22.27;100.00
17505;BME280;8870;50.950;11.762;2022-09-09T12:36:55;97885.34;;;22.05;100.00
17505;BME280;8870;50.950;11.762;2022-09-09T12:42:03;97878.84;;;21.48;100.00
17505;BME280;8870;50.950;11.762;2022-09-09T12:47:10;97891.59;;;21.13;100.00
17505;BME280;8870;50.950;11.762;2022-09-09T12:52:24;97893.66;;;20.94;100.00
17505;BME280;8870;50.950;11.762;2022-09-09T12:57:36;97899.91;;;20.77;100.00
17505;BME280;8870;50.950;11.762;2022-09-09T13:02:50;97897.66;;;20.62;100.00
17505;BME280;8870;50.950;11.762;2022-09-09T13:08:05;97892.50;;;20.54;100.00
17505;BME280;8870;50.950;11.762;2022-09-09T13:13:17;97896.81;;;20.50;100.00
17505;BME280;8870;50.950;11.762;2022-09-09T13:18:26;97901.56;;;20.19;100.00
17505;BME280;8870;50.950;11.762;2022-09-09T13:23:36;97893.00;;;20.04;100.00
17505;BME280;8870;50.950;11.762;2022-09-09T13:28:41;97899.03;;;20.06;100.00
17505;BME280;8870;50.950;11.762;2022-09-09T13:33:47;97895.84;;;19.97;100.00
17505;BME280;8870;50.950;11.762;2022-09-09T13:38:59;97897.06;;;19.82;100.00
17505;BME280;8870;50.950;11.762;2022-09-09T13:44:05;97893.50;;;19.82;100.00
17505;BME280;8870;50.950;11.762;2022-09-09T13:49:20;97885.53;;;19.68;100.00
17505;BME280;8870;50.950;11.762;2022-09-09T13:54:27;97891.91;;;19.62;100.00
17505;BME280;8870;50.950;11.762;2022-09-09T13:59:32;97883.34;;;19.59;100.00
17505;BME280;8870;50.950;11.762;2022-09-09T14:04:57;97895.09;;;19.59;100.00
17505;BME280;8870;50.950;11.762;2022-09-09T14:10:06;97891.28;;;19.91;100.00
17505;BME280;8870;50.950;11.762;2022-09-09T14:15:12;97894.41;;;20.42;100.00
17505;BME280;8870;50.950;11.762;2022-09-09T14:20:16;97875.97;;;20.73;100.00
17505;BME280;8870;50.950;11.762;2022-09-09T14:25:24;97865.59;;;21.28;100.00
17505;BME280;8870;50.950;11.762;2022-09-09T14:30:28;97873.19;;;21.83;100.00
17505;BME280;8870;50.950;11.762;2022-09-09T14:35:33;97861.13;;;22.01;100.00
17505;BME280;8870;50.950;11.762;2022-09-09T14:40:40;97858.06;;;21.98;100.00
17505;BME280;8870;50.950;11.762;2022-09-09T14:45:45;97854.41;;;21.92;100.00
17505;BME280;8870;50.950;11.762;2022-09-09T14:50:49;97857.41;;;22.08;100.00
17505;BME280;8870;50.950;11.762;2022-09-09T14:56:06;97865.38;;;22.26;100.00
17505;BME280;8870;50.950;11.762;2022-09-09T15:01:13;97879.31;;;22.59;100.00
17505;BME280;8870;50.950;11.762;2022-09-09T15:06:19;97876.28;;;22.77;100.00
17505;BME280;8870;50.950;11.762;2022-09-09T15:11:30;97878.59;;;22.86;100.00
17505;BME280;8870;50.950;11.762;2022-09-09T15:16:36;97877.44;;;23.26;100.00
17505;BME280;8870;50.950;11.762;2022-09-09T15:21:41;97878.34;;;23.09;98.12
17505;BME280;8870;50.950;11.762;2022-09-09T15:26:48;97877.25;;;23.11;91.06
17505;BME280;8870;50.950;11.762;2022-09-09T15:31:53;97869.44;;;22.58;96.57
17505;BME280;8870;50.950;11.762;2022-09-09T15:36:57;97869.34;;;22.53;100.00
17505;BME280;8870;50.950;11.762;2022-09-09T15:42:05;97864.69;;;22.36;98.20
17505;BME280;8870;50.950;11.762;2022-09-09T15:47:12;97861.97;;;22.19;100.00
17505;BME280;8870;50.950;11.762;2022-09-09T15:52:18;97865.22;;;21.99;100.00
17505;BME280;8870;50.950;11.762;2022-09-09T15:57:25;97869.72;;;22.22;100.00
17505;BME280;8870;50.950;11.762;2022-09-09T16:02:29;97864.28;;;22.44;99.09
17505;BME280;8870;50.950;11.762;2022-09-09T16:07:34;97862.63;;;22.09;100.00
17505;BME280;8870;50.950;11.762;2022-09-09T16:12:46;97860.56;;;21.99;98.17
17505;BME280;8870;50.950;11.762;2022-09-09T16:17:53;97868.97;;;21.93;100.00
17505;BME280;8870;50.950;11.762;2022-09-09T16:22:57;97868.44;;;21.62;100.00
17505;BME280;8870;50.950;11.762;2022-09-09T16:28:05;97873.09;;;21.61;100.00
17505;BME280;8870;50.950;11.762;2022-09-09T16:33:10;97873.94;;;21.21;100.00
17505;BME280;8870;50.950;11.762;2022-09-09T16:38:16;97880.31;;;21.09;100.00
17505;BME280;8870;50.950;11.762;2022-09-09T16:48:31;97888.56;;;20.98;100.00
17505;BME280;8870;50.950;11.762;2022-09-09T16:53:36;97892.31;;;21.20;100.00
17505;BME280;8870;50.950;11.762;2022-09-09T16:58:43;97897.34;;;21.00;100.00
17505;BME280;8870;50.950;11.762;2022-09-09T17:03:52;97900.25;;;20.81;100.00
17505;BME280;8870;50.950;11.762;2022-09-09T17:09:03;97898.13;;;20.59;100.00
17505;BME280;8870;50.950;11.762;2022-09-09T17:14:14;97900.00;;;20.59;100.00
17505;BME280;8870;50.950;11.762;2022-09-09T17:19:19;97897.66;;;20.39;100.00
17505;BME280;8870;50.950;11.762;2022-09-09T17:24:24;97905.50;;;20.23;100.00
17505;BME280;8870;50.950;11.762;2022-09-09T17:29:31;97898.47;;;20.04;100.00
17505;BME280;8870;50.950;11.762;2022-09-09T17:34:37;97899.44;;;19.79;100.00
17505;BME280;8870;50.950;11.762;2022-09-09T17:39:42;97891.91;;;19.62;100.00
17505;BME280;8870;50.950;11.762;2022-09-09T17:44:50;97894.56;;;19.38;100.00
17505;BME280;8870;50.950;11.762;2022-09-09T17:49:54;97912.44;;;19.22;100.00
17505;BME280;8870;50.950;11.762;2022-09-09T17:54:59;97912.75;;;18.96;100.00
17505;BME280;8870;50.950;11.762;2022-09-09T18:00:07;97923.03;;;18.75;100.00
17505;BME280;8870;50.950;11.762;2022-09-09T18:05:12;97933.88;;;18.63;100.00
17505;BME280;8870;50.950;11.762;2022-09-09T18:10:16;97940.66;;;18.54;100.00
17505;BME280;8870;50.950;11.762;2022-09-09T18:15:24;97944.31;;;18.47;100.00
17505;BME280;8870;50.950;11.762;2022-09-09T18:20:56;97930.56;;;18.10;100.00
17505;BME280;8870;50.950;11.762;2022-09-09T18:26:06;97936.06;;;18.04;100.00
17505;BME280;8870;50.950;11.762;2022-09-09T18:31:16;97937.13;;;17.96;100.00
17505;BME280;8870;50.950;11.762;2022-09-09T18:36:23;97941.84;;;17.82;100.00
17505;BME280;8870;50.950;11.762;2022-09-09T18:41:30;97937.72;;;17.73;100.00
17505;BME280;8870;50.950;11.762;2022-09-09T18:46:38;97947.44;;;17.62;100.00
17505;BME280;8870;50.950;11.762;2022-09-09T18:51:44;97948.34;;;17.49;100.00
17505;BME280;8870;50.950;11.762;2022-09-09T18:56:51;97958.44;;;17.35;100.00
17505;BME280;8870;50.950;11.762;2022-09-09T19:01:59;97962.47;;;17.25;100.00
17505;BME280;8870;50.950;11.762;2022-09-09T19:07:05;97959.19;;;17.17;100.00
17505;BME280;8870;50.950;11.762;2022-09-09T19:12:10;97966.09;;;17.13;100.00
17505;BME280;8870;50.950;11.762;2022-09-09T19:17:17;97959.81;;;17.05;100.00
17505;BME280;8870;50.950;11.762;2022-09-09T19:22:22;97942.69;;;17.05;100.00
17505;BME280;8870;50.950;11.762;2022-09-09T19:27:27;97944.59;;;16.98;100.00
17505;BME280;8870;50.950;11.762;2022-09-09T19:32:34;97962.78;;;16.90;100.00
17505;BME280;8870;50.950;11.762;2022-09-09T19:37:54;97964.06;;;16.81;100.00
17505;BME280;8870;50.950;11.762;2022-09-09T19:42:59;97964.72;;;16.70;100.00
17505;BME280;8870;50.950;11.762;2022-09-09T19:48:06;97982.72;;;16.64;100.00
17505;BME280;8870;50.950;11.762;2022-09-09T19:53:11;97980.88;;;16.51;100.00
17505;BME280;8870;50.950;11.762;2022-09-09T19:58:16;97976.06;;;16.40;100.00
17505;BME280;8870;50.950;11.762;2022-09-09T20:03:23;97989.84;;;16.31;100.00
17505;BME280;8870;50.950;11.762;2022-09-09T20:08:29;97997.16;;;16.24;100.00
17505;BME280;8870;50.950;11.762;2022-09-09T20:13:35;97996.13;;;16.18;100.00
17505;BME280;8870;50.950;11.762;2022-09-09T20:18:44;98010.13;;;16.15;100.00
17505;BME280;8870;50.950;11.762;2022-09-09T20:23:52;98013.88;;;16.08;100.00
17505;BME280;8870;50.950;11.762;2022-09-09T20:28:57;98024.31;;;16.04;100.00
17505;BME280;8870;50.950;11.762;2022-09-09T20:34:05;98028.06;;;15.96;100.00
17505;BME280;8870;50.950;11.762;2022-09-09T20:39:11;98016.56;;;15.88;100.00
17505;BME280;8870;50.950;11.762;2022-09-09T20:44:18;98018.78;;;15.77;100.00
17505;BME280;8870;50.950;11.762;2022-09-09T20:49:26;98007.91;;;15.70;100.00
17505;BME280;8870;50.950;11.762;2022-09-09T20:54:30;98015.00;;;15.65;100.00
17505;BME280;8870;50.950;11.762;2022-09-09T20:59:36;98021.03;;;15.60;100.00
17505;BME280;8870;50.950;11.762;2022-09-09T21:04:44;98031.69;;;15.55;100.00
17505;BME280;8870;50.950;11.762;2022-09-09T21:09:50;98027.06;;;15.49;100.00
17505;BME280;8870;50.950;11.762;2022-09-09T21:14:54;98023.09;;;15.45;100.00
17505;BME280;8870;50.950;11.762;2022-09-09T21:20:02;98029.94;;;15.40;100.00
17505;BME280;8870;50.950;11.762;2022-09-09T21:25:08;98032.84;;;15.32;100.00
17505;BME280;8870;50.950;11.762;2022-09-09T21:30:13;98029.88;;;15.27;100.00
17505;BME280;8870;50.950;11.762;2022-09-09T21:35:20;98030.69;;;15.21;100.00
17505;BME280;8870;50.950;11.762;2022-09-09T21:40:24;98027.53;;;15.17;100.00
17505;BME280;8870;50.950;11.762;2022-09-09T21:45:29;98031.00;;;15.04;100.00
17505;BME280;8870;50.950;11.762;2022-09-09T21:50:37;98036.84;;;15.01;100.00
17505;BME280;8870;50.950;11.762;2022-09-09T21:55:42;98034.34;;;15.00;100.00
17505;BME280;8870;50.950;11.762;2022-09-09T22:00:48;98040.34;;;14.95;100.00
17505;BME280;8870;50.950;11.762;2022-09-09T22:05:55;98037.59;;;14.88;100.00
17505;BME280;8870;50.950;11.762;2022-09-09T22:11:05;98039.44;;;14.81;100.00
17505;BME280;8870;50.950;11.762;2022-09-09T22:16:13;98038.97;;;14.77;100.00
17505;BME280;8870;50.950;11.762;2022-09-09T22:21:21;98036.69;;;14.74;100.00
17505;BME280;8870;50.950;11.762;2022-09-09T22:26:28;98039.34;;;14.68;100.00
17505;BME280;8870;50.950;11.762;2022-09-09T22:31:35;98037.81;;;14.65;100.00
17505;BME280;8870;50.950;11.762;2022-09-09T22:36:42;98029.06;;;14.63;100.00
17505;BME280;8870;50.950;11.762;2022-09-09T22:41:47;98034.44;;;14.56;100.00
17505;BME280;8870;50.950;11.762;2022-09-09T22:46:51;98030.63;;;14.51;100.00
17505;BME280;8870;50.950;11.762;2022-09-09T22:51:59;98021.22;;;14.46;100.00
17505;BME280;8870;50.950;11.762;2022-09-09T22:57:03;98032.63;;;14.42;100.00
17505;BME280;8870;50.950;11.762;2022-09-09T23:02:10;98031.09;;;14.32;100.00
17505;BME280;8870;50.950;11.762;2022-09-09T23:07:17;98017.88;;;14.23;100.00
17505;BME280;8870;50.950;11.762;2022-09-09T23:12:24;98010.13;;;14.20;100.00
17505;BME280;8870;50.950;11.762;2022-09-09T23:17:29;98006.16;;;14.15;100.00
17505;BME280;8870;50.950;11.762;2022-09-09T23:22:37;98007.38;;;14.13;100.00
17505;BME280;8870;50.950;11.762;2022-09-09T23:27:43;98015.69;;;14.11;100.00
17505;BME280;8870;50.950;11.762;2022-09-09T23:32:48;98019.63;;;14.09;100.00
17505;BME280;8870;50.950;11.762;2022-09-09T23:37:56;98015.84;;;14.03;100.00
17505;BME280;8870;50.950;11.762;2022-09-09T23:43:00;98020.97;;;13.98;100.00
17505;BME280;8870;50.950;11.762;2022-09-09T23:48:05;98028.22;;;13.91;100.00
17505;BME280;8870;50.950;11.762;2022-09-09T23:53:12;98026.69;;;13.88;100.00
17505;BME280;8870;50.950;11.762;2022-09-09T23:58:17;98026.25;;;13.84;100.00
